createdAt,value
2023-03-15T00:01:08.508Z,9.98
2023-03-15T00:03:39.845Z,10.01
2023-03-15T00:06:07.420Z,9.96
2023-03-15T00:08:35.022Z,9.92
2023-03-15T00:11:02.884Z,9.90
2023-03-15T00:13:30.828Z,9.90
2023-03-15T00:16:00.730Z,9.92
2023-03-15T00:18:28.225Z,9.98
2023-03-15T00:20:55.909Z,9.94
2023-03-15T00:23:23.357Z,9.96
2023-03-15T00:25:52.546Z,9.92
2023-03-15T00:28:20.413Z,9.94
2023-03-15T00:30:48.076Z,9.99
2023-03-15T00:33:16.606Z,9.98
2023-03-15T00:35:45.594Z,10.04
2023-03-15T00:38:14.285Z,9.98
2023-03-15T00:40:42.780Z,9.90
2023-03-15T00:43:10.126Z,9.92
2023-03-15T00:45:37.518Z,9.88
2023-03-15T00:48:05.322Z,9.83
2023-03-15T00:50:32.603Z,9.70
2023-03-15T00:52:59.939Z,9.75
2023-03-15T00:55:29.342Z,9.84
2023-03-15T00:57:57.178Z,9.78
2023-03-15T01:00:25.179Z,9.65
2023-03-15T01:02:55.477Z,9.62
2023-03-15T01:05:22.972Z,9.71
2023-03-15T01:07:51.920Z,9.68
2023-03-15T01:10:19.686Z,9.66
2023-03-15T01:12:46.988Z,9.60
2023-03-15T01:15:15.750Z,9.53
2023-03-15T01:17:44.372Z,9.56
2023-03-15T01:20:15.361Z,9.52
2023-03-15T01:22:43.217Z,9.48
2023-03-15T01:25:10.760Z,9.44
2023-03-15T01:27:38.297Z,9.41
2023-03-15T01:30:07.078Z,9.41
2023-03-15T01:32:34.894Z,9.44
2023-03-15T01:35:02.308Z,9.37
2023-03-15T01:37:29.705Z,9.31
2023-03-15T01:39:57.362Z,9.24
2023-03-15T01:42:24.723Z,9.15
2023-03-15T01:44:59.934Z,9.16
2023-03-15T01:47:28.606Z,9.14
2023-03-15T01:50:04.630Z,9.06
2023-03-15T01:52:36.030Z,9.13
2023-03-15T01:55:14.910Z,9.03
2023-03-15T01:57:58.936Z,9.24
2023-03-15T02:00:28.640Z,9.41
2023-03-15T02:03:08.088Z,9.42
2023-03-15T02:05:46.309Z,9.38
2023-03-15T02:08:19.735Z,9.34
2023-03-15T02:10:51.573Z,9.21
2023-03-15T02:13:24.125Z,9.19
2023-03-15T02:15:53.662Z,9.21
2023-03-15T02:18:26.550Z,9.18
2023-03-15T02:21:06.454Z,9.16
2023-03-15T02:23:34.734Z,9.13
2023-03-15T02:26:16.709Z,9.08
2023-03-15T02:28:44.448Z,9.05
2023-03-15T02:31:13.830Z,8.96
2023-03-15T02:33:50.681Z,8.95
2023-03-15T02:36:29.833Z,8.92
2023-03-15T02:38:57.497Z,8.89
2023-03-15T02:41:30.674Z,8.87
2023-03-15T02:44:06.539Z,8.88
2023-03-15T02:46:34.482Z,8.79
2023-03-15T02:49:07.816Z,8.68
2023-03-15T02:51:35.137Z,8.67
2023-03-15T02:54:02.640Z,8.61
2023-03-15T02:56:30.001Z,8.60
2023-03-15T02:58:57.651Z,8.62
2023-03-15T03:01:25.148Z,8.59
2023-03-15T03:03:52.453Z,8.49
2023-03-15T03:06:20.339Z,8.53
2023-03-15T03:08:48.492Z,8.43
2023-03-15T03:11:19.274Z,8.41
2023-03-15T03:13:46.755Z,8.45
2023-03-15T03:16:14.133Z,8.34
2023-03-15T03:18:43.134Z,8.31
2023-03-15T03:21:10.692Z,8.29
2023-03-15T03:23:38.112Z,8.30
2023-03-15T03:26:16.593Z,8.36
2023-03-15T03:28:47.546Z,8.20
2023-03-15T03:31:26.410Z,8.16
2023-03-15T03:33:58.374Z,8.05
2023-03-15T03:36:26.464Z,8.08
2023-03-15T03:38:54.105Z,8.04
2023-03-15T03:41:22.361Z,8.03
2023-03-15T03:43:49.924Z,7.93
2023-03-15T03:46:17.805Z,7.95
2023-03-15T03:48:49.873Z,8.09
2023-03-15T03:51:17.223Z,8.13
2023-03-15T03:53:44.499Z,8.14
2023-03-15T03:56:12.583Z,8.18
2023-03-15T03:58:39.934Z,8.12
2023-03-15T04:01:14.974Z,8.14
2023-03-15T04:03:42.400Z,8.19
2023-03-15T04:06:14.521Z,8.25
2023-03-15T04:08:45.269Z,8.22
2023-03-15T04:11:18.598Z,8.19
2023-03-15T04:13:55.418Z,8.13
2023-03-15T04:16:24.715Z,8.09
2023-03-15T04:19:05.018Z,7.84
2023-03-15T04:21:34.448Z,7.74
2023-03-15T04:24:24.836Z,7.69
2023-03-15T04:27:06.459Z,7.77
2023-03-15T04:29:44.760Z,7.85
2023-03-15T04:32:22.331Z,7.84
2023-03-15T04:34:58.163Z,7.89
2023-03-15T04:37:51.874Z,7.94
2023-03-15T04:40:42.872Z,7.93
2023-03-15T04:43:36.488Z,7.91
2023-03-15T04:46:32.072Z,7.93
2023-03-15T04:49:18.082Z,7.87
2023-03-15T04:52:07.980Z,7.75
2023-03-15T04:54:39.283Z,7.62
2023-03-15T04:57:23.656Z,7.69
2023-03-15T05:00:12.901Z,7.62
2023-03-15T05:03:00.409Z,7.69
2023-03-15T05:05:42.152Z,7.78
2023-03-15T05:08:41.755Z,7.56
2023-03-15T05:11:24.518Z,7.36
2023-03-15T05:14:07.892Z,7.23
2023-03-15T05:16:55.996Z,7.13
2023-03-15T05:19:44.856Z,7.21
2023-03-15T05:22:32.425Z,7.27
2023-03-15T05:25:18.170Z,7.22
2023-03-15T05:28:04.928Z,7.12
2023-03-15T05:30:55.378Z,7.29
2023-03-15T05:33:54.559Z,7.39
2023-03-15T05:36:37.625Z,7.32
2023-03-15T05:39:24.068Z,7.23
2023-03-15T05:42:15.797Z,7.22
2023-03-15T05:45:12.372Z,7.07
2023-03-15T05:47:53.378Z,7.12
2023-03-15T05:50:37.564Z,6.91
2023-03-15T05:53:23.956Z,6.88
2023-03-15T05:56:12.514Z,6.96
2023-03-15T05:59:02.925Z,7.08
2023-03-15T06:01:48.671Z,7.15
2023-03-15T06:04:22.187Z,7.26
2023-03-15T06:06:49.625Z,7.41
2023-03-15T06:09:19.770Z,8.27
2023-03-15T06:11:47.723Z,8.37
2023-03-15T06:14:15.075Z,8.36
2023-03-15T06:16:48.873Z,9.45
2023-03-15T06:19:16.209Z,10.66
2023-03-15T06:21:43.990Z,10.89
2023-03-15T06:24:17.958Z,11.28
2023-03-15T06:26:45.587Z,12.74
2023-03-15T06:29:13.088Z,12.33
2023-03-15T06:31:40.934Z,11.29
2023-03-15T06:34:10.293Z,12.50
2023-03-15T06:36:37.701Z,13.19
2023-03-15T06:39:05.728Z,14.59
2023-03-15T06:41:33.120Z,15.95
2023-03-15T06:44:08.554Z,16.63
2023-03-15T06:46:37.561Z,17.59
2023-03-15T06:49:06.552Z,18.05
2023-03-15T06:51:34.168Z,18.45
2023-03-15T06:54:01.532Z,18.48
2023-03-15T06:56:30.510Z,18.71
2023-03-15T06:58:57.780Z,19.24
2023-03-15T07:01:25.189Z,19.81
2023-03-15T07:03:52.474Z,19.48
2023-03-15T07:06:20.976Z,20.00
2023-03-15T07:08:48.348Z,20.32
2023-03-15T07:11:15.733Z,20.66
2023-03-15T07:13:43.857Z,20.31
2023-03-15T07:16:11.223Z,20.36
2023-03-15T07:18:38.562Z,20.06
2023-03-15T07:21:08.172Z,20.84
2023-03-15T07:23:35.686Z,20.57
2023-03-15T07:26:03.083Z,20.61
2023-03-15T07:28:30.453Z,20.45
2023-03-15T07:31:00.207Z,20.75
2023-03-15T07:33:29.396Z,20.89
2023-03-15T07:35:57.395Z,21.32
2023-03-15T07:38:29.196Z,21.56
2023-03-15T07:40:58.007Z,22.17
2023-03-15T07:43:25.355Z,22.64
2023-03-15T07:46:06.924Z,22.98
2023-03-15T07:48:34.315Z,23.66
2023-03-15T07:51:01.753Z,24.13
2023-03-15T07:53:29.567Z,23.84
2023-03-15T07:55:56.998Z,24.04
2023-03-15T07:58:24.303Z,24.31
2023-03-15T08:00:54.835Z,24.98
2023-03-15T08:03:24.155Z,25.77
2023-03-15T08:05:51.563Z,24.78
2023-03-15T08:08:19.156Z,21.90
2023-03-15T08:10:46.892Z,19.67
2023-03-15T08:13:14.366Z,20.32
2023-03-15T08:15:44.998Z,20.20
2023-03-15T08:18:12.318Z,21.53
2023-03-15T08:20:39.724Z,21.60
2023-03-15T08:23:07.470Z,21.02
2023-03-15T08:25:40.642Z,19.12
2023-03-15T08:28:08.283Z,17.49
2023-03-15T08:30:35.798Z,16.63
2023-03-15T08:33:03.777Z,15.99
2023-03-15T08:35:33.083Z,15.70
2023-03-15T08:38:02.649Z,15.52
2023-03-15T08:40:30.591Z,15.06
2023-03-15T08:42:58.390Z,14.75
2023-03-15T08:45:26.785Z,14.50
2023-03-15T08:47:57.852Z,14.30
2023-03-15T08:50:26.302Z,14.11
2023-03-15T08:52:54.087Z,14.00
2023-03-15T08:55:21.641Z,13.81
2023-03-15T08:57:49.322Z,13.77
2023-03-15T09:00:27.073Z,13.86
2023-03-15T09:02:55.095Z,13.49
2023-03-15T09:05:24.763Z,13.43
2023-03-15T09:07:53.218Z,13.20
2023-03-15T09:10:22.167Z,13.18
2023-03-15T09:12:53.546Z,13.20
2023-03-15T09:15:21.698Z,13.11
2023-03-15T09:17:51.136Z,13.06
2023-03-15T09:20:21.865Z,13.06
2023-03-15T09:22:57.586Z,13.05
2023-03-15T09:25:25.881Z,13.10
2023-03-15T09:27:53.584Z,13.18
2023-03-15T09:30:21.304Z,13.41
2023-03-15T09:32:48.890Z,13.56
2023-03-15T09:35:18.804Z,13.62
2023-03-15T09:37:47.770Z,14.15
2023-03-15T09:40:24.111Z,14.75
2023-03-15T09:43:04.868Z,15.69
2023-03-15T09:45:50.441Z,17.76
2023-03-15T09:48:46.924Z,19.25
2023-03-15T09:51:21.755Z,20.51
2023-03-15T09:54:00.828Z,22.73
2023-03-15T09:56:39.178Z,23.53
2023-03-15T09:59:07.050Z,24.09
2023-03-15T10:01:39.697Z,23.50
2023-03-15T10:04:30.180Z,23.28
2023-03-15T10:07:01.587Z,23.11
2023-03-15T10:09:35.970Z,24.23
2023-03-15T10:12:12.436Z,23.33
2023-03-15T10:14:58.197Z,23.91
2023-03-15T10:18:14.281Z,24.73
2023-03-15T10:20:50.099Z,24.72
2023-03-15T10:23:30.852Z,24.88
2023-03-15T10:25:58.257Z,25.41
2023-03-15T10:28:31.256Z,25.70
2023-03-15T10:31:09.607Z,25.74
2023-03-15T10:33:39.055Z,26.08
2023-03-15T10:36:25.503Z,25.33
2023-03-15T10:38:53.171Z,23.90
2023-03-15T10:41:38.886Z,23.93
2023-03-15T10:44:24.384Z,22.47
2023-03-15T10:47:23.094Z,20.53
2023-03-15T10:49:57.264Z,19.48
2023-03-15T10:52:41.780Z,18.50
2023-03-15T10:55:16.575Z,17.89
2023-03-15T10:57:56.133Z,17.57
2023-03-15T11:00:31.832Z,18.25
2023-03-15T11:03:02.315Z,20.34
2023-03-15T11:05:32.579Z,21.34
2023-03-15T11:08:01.128Z,22.13
2023-03-15T11:10:33.752Z,21.58
2023-03-15T11:13:24.460Z,20.51
2023-03-15T11:16:11.169Z,18.79
2023-03-15T11:18:57.388Z,17.54
2023-03-15T11:21:34.157Z,16.74
2023-03-15T11:24:04.305Z,15.61
2023-03-15T11:26:36.846Z,16.83
2023-03-15T11:29:10.383Z,17.00
2023-03-15T11:31:38.145Z,18.58
2023-03-15T11:34:51.649Z,17.33
2023-03-15T11:37:32.372Z,15.52
2023-03-15T11:40:17.380Z,14.83
2023-03-15T11:43:14.768Z,14.06
2023-03-15T11:45:49.259Z,15.13
2023-03-15T11:49:01.054Z,16.08
2023-03-15T11:51:33.657Z,16.88
2023-03-15T11:54:06.507Z,17.72
2023-03-15T11:56:53.947Z,16.79
2023-03-15T11:59:25.823Z,16.46
2023-03-15T12:02:05.881Z,16.70
2023-03-15T12:04:33.648Z,17.28
2023-03-15T12:07:28.178Z,17.14
2023-03-15T12:09:56.733Z,17.94
2023-03-15T12:12:23.917Z,17.67
2023-03-15T12:15:18.717Z,17.66
2023-03-15T12:17:50.208Z,18.15
2023-03-15T12:20:37.764Z,17.95
2023-03-15T12:23:17.374Z,18.09
2023-03-15T12:25:55.142Z,17.89
2023-03-15T12:28:31.578Z,17.26
2023-03-15T12:31:04.837Z,17.72
2023-03-15T12:33:43.151Z,17.81
2023-03-15T12:36:20.049Z,17.87
2023-03-15T12:39:16.529Z,17.95
2023-03-15T12:41:46.834Z,17.56
2023-03-15T12:44:24.494Z,18.03
2023-03-15T12:46:51.777Z,17.35
2023-03-15T12:49:24.944Z,17.72
2023-03-15T12:51:59.490Z,17.83
2023-03-15T12:54:37.060Z,18.20
2023-03-15T12:57:05.808Z,18.17
2023-03-15T13:00:06.353Z,18.82
2023-03-15T13:02:45.357Z,18.40
2023-03-15T13:05:18.955Z,18.21
2023-03-15T13:07:53.925Z,18.60
2023-03-15T13:10:26.731Z,18.43
2023-03-15T13:13:11.048Z,18.87
2023-03-15T13:15:49.565Z,18.67
2023-03-15T13:18:21.941Z,18.52
2023-03-15T13:21:11.857Z,17.87
2023-03-15T13:23:43.096Z,17.85
2023-03-15T13:26:33.756Z,17.94
2023-03-15T13:29:14.998Z,18.53
2023-03-15T13:31:44.225Z,18.09
2023-03-15T13:34:19.683Z,17.57
2023-03-15T13:36:53.587Z,17.77
2023-03-15T13:39:24.858Z,17.84
2023-03-15T13:41:59.463Z,18.35
2023-03-15T13:44:30.458Z,18.59
2023-03-15T13:46:59.105Z,18.80
2023-03-15T13:49:32.004Z,18.55
2023-03-15T13:52:02.491Z,18.69
2023-03-15T13:54:31.723Z,17.54
2023-03-15T13:57:17.320Z,17.89
2023-03-15T13:59:50.204Z,18.25
2023-03-15T14:02:21.992Z,18.40
2023-03-15T14:04:56.252Z,18.07
2023-03-15T14:07:34.105Z,18.62
2023-03-15T14:10:08.804Z,18.49
2023-03-15T14:12:36.361Z,17.57
2023-03-15T14:15:03.942Z,17.37
2023-03-15T14:17:31.701Z,17.72
2023-03-15T14:20:08.899Z,17.59
2023-03-15T14:22:36.979Z,17.85
2023-03-15T14:25:22.012Z,17.98
2023-03-15T14:27:49.453Z,18.06
2023-03-15T14:30:25.725Z,17.96
2023-03-15T14:33:00.049Z,17.74
2023-03-15T14:35:40.165Z,17.37
2023-03-15T14:38:32.525Z,17.34
2023-03-15T14:41:33.167Z,17.07
2023-03-15T14:44:03.006Z,17.75
2023-03-15T14:46:31.658Z,17.80
2023-03-15T14:48:59.011Z,18.32
2023-03-15T14:51:28.605Z,17.89
2023-03-15T14:53:57.399Z,18.16
2023-03-15T14:56:25.626Z,17.99
2023-03-15T14:58:56.107Z,17.71
2023-03-15T15:01:27.660Z,17.61
2023-03-15T15:03:59.780Z,17.38
2023-03-15T15:06:29.238Z,17.56
2023-03-15T15:08:58.957Z,17.55
2023-03-15T15:11:26.924Z,17.27
2023-03-15T15:13:54.873Z,17.48
2023-03-15T15:16:22.342Z,17.62
2023-03-15T15:18:49.864Z,17.30
2023-03-15T15:21:33.667Z,17.64
2023-03-15T15:24:07.568Z,17.56
2023-03-15T15:26:35.979Z,17.63
2023-03-15T15:29:03.647Z,17.51
2023-03-15T15:31:34.361Z,17.50
2023-03-15T15:34:01.997Z,17.46
2023-03-15T15:36:35.875Z,17.18
2023-03-15T15:39:07.120Z,16.97
2023-03-15T15:41:35.164Z,17.05
2023-03-15T15:44:02.798Z,17.08
2023-03-15T15:46:30.352Z,16.85
2023-03-15T15:48:58.764Z,16.76
2023-03-15T15:51:30.136Z,16.80
2023-03-15T15:54:02.003Z,16.62
2023-03-15T15:56:44.321Z,16.62
2023-03-15T15:59:14.982Z,16.52
2023-03-15T16:01:58.901Z,16.63
2023-03-15T16:04:26.889Z,16.46
2023-03-15T16:06:57.217Z,16.44
2023-03-15T16:09:26.622Z,16.63
2023-03-15T16:11:54.253Z,16.22
2023-03-15T16:14:21.568Z,16.26
2023-03-15T16:16:49.058Z,16.12
2023-03-15T16:19:16.379Z,15.86
2023-03-15T16:21:50.914Z,16.13
2023-03-15T16:24:23.534Z,15.95
2023-03-15T16:26:52.730Z,15.56
2023-03-15T16:29:23.097Z,15.67
2023-03-15T16:31:51.206Z,15.44
2023-03-15T16:34:19.827Z,15.32
2023-03-15T16:36:54.690Z,15.11
2023-03-15T16:39:22.874Z,15.26
2023-03-15T16:41:52.088Z,15.10
2023-03-15T16:44:21.518Z,14.96
2023-03-15T16:46:49.052Z,14.90
2023-03-15T16:49:16.883Z,14.81
2023-03-15T16:51:49.258Z,14.63
2023-03-15T16:54:30.600Z,14.70
2023-03-15T16:57:02.124Z,14.45
2023-03-15T16:59:29.499Z,14.39
2023-03-15T17:01:57.004Z,14.21
2023-03-15T17:04:24.404Z,14.04
2023-03-15T17:09:24.464Z,13.93
2023-03-15T17:11:52.416Z,13.76
2023-03-15T17:14:29.457Z,13.79
2023-03-15T17:16:57.065Z,13.83
2023-03-15T17:19:24.899Z,13.67
2023-03-15T17:21:52.978Z,13.75
2023-03-15T17:24:20.398Z,13.53
2023-03-15T17:26:48.350Z,13.40
2023-03-15T17:29:16.439Z,13.34
2023-03-15T17:31:44.608Z,13.31
2023-03-15T17:34:12.052Z,13.25
2023-03-15T17:36:39.880Z,13.24
2023-03-15T17:39:11.205Z,13.35
2023-03-15T17:41:42.166Z,13.27
2023-03-15T17:44:10.783Z,13.22
2023-03-15T17:46:38.130Z,13.07
2023-03-15T17:49:07.119Z,12.85
2023-03-15T17:51:36.920Z,12.68
2023-03-15T17:54:15.482Z,12.58
2023-03-15T17:56:43.376Z,12.45
2023-03-15T17:59:12.225Z,12.52
2023-03-15T18:01:43.495Z,12.46
2023-03-15T18:04:15.586Z,12.44
2023-03-15T18:06:43.231Z,12.44
2023-03-15T18:09:12.648Z,12.56
2023-03-15T18:11:42.587Z,12.44
2023-03-15T18:14:13.634Z,12.40
2023-03-15T18:16:41.721Z,12.46
2023-03-15T18:19:09.489Z,12.39
2023-03-15T18:21:37.124Z,12.28
2023-03-15T18:24:04.727Z,12.31
2023-03-15T18:26:32.214Z,12.10
2023-03-15T18:28:59.595Z,12.09
2023-03-15T18:31:27.067Z,12.07
2023-03-15T18:33:54.504Z,12.07
2023-03-15T18:36:22.295Z,11.99
2023-03-15T18:38:49.744Z,11.98
2023-03-15T18:41:23.581Z,11.86
2023-03-15T18:43:52.022Z,11.91
2023-03-15T18:46:24.642Z,11.84
2023-03-15T18:48:54.458Z,11.80
2023-03-15T18:51:28.293Z,11.84
2023-03-15T18:53:56.079Z,11.83
2023-03-15T18:56:26.076Z,11.73
2023-03-15T18:58:54.366Z,11.67
2023-03-15T19:01:22.945Z,11.67
2023-03-15T19:03:52.271Z,11.64
2023-03-15T19:06:21.372Z,11.58
2023-03-15T19:08:53.371Z,11.62
2023-03-15T19:11:21.176Z,11.60
2023-03-15T19:13:51.485Z,11.90
2023-03-15T19:16:20.693Z,11.85
2023-03-15T19:18:49.480Z,11.59
2023-03-15T19:21:18.793Z,11.57
2023-03-15T19:23:47.166Z,11.40
2023-03-15T19:26:14.589Z,11.36
2023-03-15T19:28:41.880Z,11.23
2023-03-15T19:31:09.411Z,11.11
2023-03-15T19:33:37.139Z,10.86
2023-03-15T19:36:04.971Z,10.79
2023-03-15T19:38:33.059Z,11.21
2023-03-15T19:41:04.967Z,11.27
2023-03-15T19:43:32.650Z,11.19
2023-03-15T19:46:01.555Z,11.07
2023-03-15T19:48:28.972Z,10.90
2023-03-15T19:50:56.402Z,10.78
2023-03-15T19:53:23.722Z,10.73
2023-03-15T19:55:53.829Z,10.69
2023-03-15T19:58:21.246Z,10.59
2023-03-15T20:00:54.609Z,10.42
2023-03-15T20:03:21.893Z,10.44
2023-03-15T20:05:49.160Z,10.38
2023-03-15T20:08:16.742Z,10.44
2023-03-15T20:10:44.095Z,10.40
2023-03-15T20:13:11.547Z,10.33
2023-03-15T20:15:38.886Z,10.23
2023-03-15T20:18:08.209Z,10.20
2023-03-15T20:20:35.648Z,10.24
2023-03-15T20:23:03.713Z,10.18
2023-03-15T20:25:31.556Z,10.19
2023-03-15T20:27:59.255Z,10.13
2023-03-15T20:30:26.819Z,10.11
2023-03-15T20:32:54.713Z,10.03
2023-03-15T20:35:23.405Z,9.91
2023-03-15T20:37:53.040Z,9.82
2023-03-15T20:40:20.944Z,9.91
2023-03-15T20:42:48.476Z,9.89
2023-03-15T20:45:15.947Z,9.89
2023-03-15T20:47:43.270Z,9.88
2023-03-15T20:50:11.923Z,9.84
2023-03-15T20:52:40.874Z,9.79
2023-03-15T20:55:09.605Z,9.78
2023-03-15T20:57:37.119Z,9.78
2023-03-15T21:00:12.365Z,9.79
2023-03-15T21:02:41.246Z,9.85
2023-03-15T21:05:16.170Z,9.73
2023-03-15T21:07:45.872Z,9.61
2023-03-15T21:10:13.786Z,9.56
2023-03-15T21:12:41.694Z,9.60
2023-03-15T21:15:09.314Z,9.34
2023-03-15T21:17:36.689Z,9.31
2023-03-15T21:20:07.200Z,9.45
2023-03-15T21:22:34.565Z,9.55
2023-03-15T21:25:02.078Z,9.62
2023-03-15T21:27:29.698Z,9.43
2023-03-15T21:29:57.073Z,9.41
2023-03-15T21:32:24.647Z,9.28
2023-03-15T21:34:51.945Z,9.07
2023-03-15T21:37:19.342Z,8.87
2023-03-15T21:39:46.707Z,8.94
2023-03-15T21:42:14.032Z,9.02
2023-03-15T21:44:41.723Z,9.06
2023-03-15T21:47:09.282Z,8.90
2023-03-15T21:49:36.571Z,8.93
2023-03-15T21:52:03.945Z,9.11
2023-03-15T21:54:31.232Z,9.26
2023-03-15T21:56:58.590Z,9.01
2023-03-15T21:59:28.727Z,8.80
2023-03-15T22:01:57.148Z,8.63
2023-03-15T22:04:24.821Z,8.41
2023-03-15T22:06:55.280Z,8.67
2023-03-15T22:09:23.451Z,8.63
2023-03-15T22:11:50.894Z,8.58
2023-03-15T22:14:18.560Z,8.58
2023-03-15T22:16:46.241Z,8.55
2023-03-15T22:19:14.482Z,8.52
2023-03-15T22:21:42.246Z,8.47
2023-03-15T22:24:10.625Z,8.44
2023-03-15T22:26:37.966Z,8.43
2023-03-15T22:29:05.250Z,8.46
2023-03-15T22:31:32.769Z,8.53
2023-03-15T22:34:00.088Z,8.42
2023-03-15T22:36:27.418Z,8.28
2023-03-15T22:38:54.709Z,8.32
2023-03-15T22:41:22.160Z,8.13
2023-03-15T22:43:49.481Z,8.02
2023-03-15T22:46:16.924Z,7.82
2023-03-15T22:48:44.511Z,7.79
2023-03-15T22:51:14.832Z,7.76
2023-03-15T22:53:42.225Z,7.84
2023-03-15T22:56:09.685Z,7.84
2023-03-15T22:58:37.743Z,7.77
2023-03-15T23:01:05.360Z,8.04
2023-03-15T23:03:32.783Z,8.09
2023-03-15T23:06:00.435Z,8.12
2023-03-15T23:08:28.044Z,8.13
2023-03-15T23:10:58.265Z,8.22
2023-03-15T23:13:25.683Z,8.18
2023-03-15T23:15:54.293Z,8.21
2023-03-15T23:18:22.103Z,8.17
2023-03-15T23:20:49.597Z,8.22
2023-03-15T23:23:17.033Z,8.21
2023-03-15T23:25:45.926Z,8.10
2023-03-15T23:28:13.881Z,8.23
2023-03-15T23:30:41.319Z,8.10
2023-03-15T23:33:08.796Z,8.09
2023-03-15T23:35:37.140Z,7.90
2023-03-15T23:38:04.566Z,7.84
2023-03-15T23:40:31.876Z,7.96
2023-03-15T23:42:59.460Z,7.90
2023-03-15T23:45:29.853Z,7.77
2023-03-15T23:47:58.030Z,7.90
2023-03-15T23:50:26.523Z,7.94
2023-03-15T23:52:55.852Z,7.91
2023-03-15T23:55:24.022Z,8.01
2023-03-15T23:57:51.663Z,8.00
